Time;durP1;ratioP1;P1;durP2;ratioP2;P2;SDS_P1;SDS_P2;PMS_P1;PMS_P2;Temp;Humidity;BMP_temperature;BMP_pressure;BME280_temperature;BME280_humidity;BME280_pressure;Samples;Min_cycle;Max_cycle;Signal;HPM_P1;HPM_P2
2022/03/17 00:02:07;;;;;;;9.70;7.90;;;;;;;;;;5075047;28;20198;-74
2022/03/17 00:04:35;;;;;;;9.25;7.90;;;;;;;;;;5071712;28;20244;-74
2022/03/17 00:07:02;;;;;;;9.18;8.27;;;;;;;;;;5055219;28;20209;-73
2022/03/17 00:09:31;;;;;;;8.18;6.53;;;;;;;;;;5070157;28;20201;-74
2022/03/17 00:11:59;;;;;;;8.95;7.72;;;;;;;;;;5069473;28;20281;-74
2022/03/17 00:14:26;;;;;;;7.47;6.78;;;;;;;;;;5071073;28;20186;-73
2022/03/17 00:16:53;;;;;;;8.73;7.10;;;;;;;;;;5070513;28;20194;-74
2022/03/17 00:19:20;;;;;;;8.73;7.22;;;;;;;;;;5070820;28;20640;-72
2022/03/17 00:21:47;;;;;;;10.77;7.65;;;;;;;;;;5070063;28;20279;-72
2022/03/17 00:24:14;;;;;;;9.30;8.40;;;;;;;;;;5065138;28;20666;-72
2022/03/17 00:26:42;;;;;;;7.68;6.95;;;;;;;;;;5070063;28;20220;-72
2022/03/17 00:29:10;;;;;;;9.35;7.90;;;;;;;;;;5066439;28;20226;-72
2022/03/17 00:31:37;;;;;;;7.95;7.15;;;;;;;;;;5069615;28;20652;-73
2022/03/17 00:34:05;;;;;;;10.55;9.50;;;;;;;;;;5072090;28;20285;-72
2022/03/17 00:36:34;;;;;;;10.93;8.15;;;;;;;;;;5070969;28;20589;-73
2022/03/17 00:39:01;;;;;;;8.20;7.40;;;;;;;;;;5069573;28;20213;-73
2022/03/17 00:41:28;;;;;;;8.45;7.50;;;;;;;;;;5070641;28;20569;-72
2022/03/17 00:43:56;;;;;;;9.13;7.63;;;;;;;;;;5067954;28;20197;-73
2022/03/17 00:46:23;;;;;;;8.07;7.28;;;;;;;;;;5070005;28;20191;-73
2022/03/17 00:48:51;;;;;;;8.63;7.72;;;;;;;;;;5067448;28;20247;-73
2022/03/17 00:51:18;;;;;;;8.77;7.95;;;;;;;;;;5071034;28;20199;-73
2022/03/17 00:53:46;;;;;;;9.48;7.57;;;;;;;;;;5069080;28;20186;-73
2022/03/17 00:56:13;;;;;;;8.75;7.80;;;;;;;;;;5062161;28;20675;-73
2022/03/17 00:58:40;;;;;;;9.95;7.43;;;;;;;;;;5069740;28;20190;-73
2022/03/17 01:01:09;;;;;;;8.65;5.93;;;;;;;;;;5068053;28;20210;-73
2022/03/17 01:03:36;;;;;;;7.90;7.15;;;;;;;;;;5070579;28;20281;-72
2022/03/17 01:06:03;;;;;;;13.57;7.70;;;;;;;;;;5070622;28;20221;-73
2022/03/17 01:08:30;;;;;;;9.70;8.43;;;;;;;;;;5068375;28;20239;-73
2022/03/17 01:10:57;;;;;;;8.15;7.30;;;;;;;;;;5070885;28;20198;-73
2022/03/17 01:13:24;;;;;;;8.18;7.30;;;;;;;;;;5070913;28;20549;-73
2022/03/17 01:15:51;;;;;;;8.07;7.25;;;;;;;;;;5066591;28;20205;-73
2022/03/17 01:18:21;;;;;;;10.40;9.27;;;;;;;;;;5070154;28;20197;-73
2022/03/17 01:20:48;;;;;;;8.95;7.38;;;;;;;;;;5069818;28;20707;-73
2022/03/17 01:23:15;;;;;;;7.70;6.90;;;;;;;;;;5067198;28;20201;-73
2022/03/17 01:25:42;;;;;;;11.10;8.32;;;;;;;;;;5066162;28;20190;-73
2022/03/17 01:28:10;;;;;;;9.98;8.05;;;;;;;;;;5070064;28;20194;-73
2022/03/17 01:30:37;;;;;;;8.00;7.20;;;;;;;;;;5066504;28;20682;-73
2022/03/17 01:33:04;;;;;;;9.57;7.75;;;;;;;;;;5070460;28;20498;-73
2022/03/17 01:35:32;;;;;;;9.45;8.50;;;;;;;;;;5071087;28;20667;-73
2022/03/17 01:37:59;;;;;;;8.27;7.47;;;;;;;;;;5068924;28;20570;-73
2022/03/17 01:40:26;;;;;;;11.15;9.50;;;;;;;;;;5067742;28;20221;-73
2022/03/17 01:42:53;;;;;;;7.32;6.63;;;;;;;;;;5069571;28;20668;-73
2022/03/17 01:45:20;;;;;;;9.85;7.75;;;;;;;;;;5068191;28;20202;-73
2022/03/17 01:47:47;;;;;;;8.75;7.18;;;;;;;;;;5069499;28;20193;-73
2022/03/17 01:50:17;;;;;;;8.70;7.90;;;;;;;;;;5064286;28;20201;-73
2022/03/17 01:52:46;;;;;;;8.75;7.85;;;;;;;;;;5067945;28;20514;-73
2022/03/17 01:55:14;;;;;;;8.93;8.02;;;;;;;;;;5071108;28;20660;-73
2022/03/17 01:57:41;;;;;;;9.95;8.85;;;;;;;;;;5069393;28;20194;-73
2022/03/17 02:00:10;;;;;;;12.57;9.88;;;;;;;;;;5066541;28;20210;-73
2022/03/17 02:02:37;;;;;;;9.80;6.80;;;;;;;;;;5073088;28;20201;-73
2022/03/17 02:05:05;;;;;;;10.15;9.15;;;;;;;;;;5077492;28;20197;-71
2022/03/17 02:07:32;;;;;;;8.65;7.75;;;;;;;;;;5069418;28;20652;-72
2022/03/17 02:10:01;;;;;;;9.73;7.15;;;;;;;;;;5069122;28;20243;-72
2022/03/17 02:15:13;;;;;;;8.15;7.35;;;;;;;;;;5067502;28;20331;-72
2022/03/17 02:17:41;;;;;;;9.25;7.22;;;;;;;;;;5071049;28;20248;-72
2022/03/17 02:20:09;;;;;;;7.88;7.10;;;;;;;;;;5069359;28;20191;-72
2022/03/17 02:22:39;;;;;;;7.95;7.15;;;;;;;;;;5065480;28;20688;-71
2022/03/17 02:27:53;;;;;;;7.72;6.82;;;;;;;;;;5071398;28;20205;-71
2022/03/17 02:30:21;;;;;;;7.45;6.65;;;;;;;;;;5067802;28;20199;-71
2022/03/17 02:32:48;;;;;;;7.72;6.93;;;;;;;;;;5069723;28;20198;-73
2022/03/17 02:35:16;;;;;;;7.70;6.20;;;;;;;;;;5070136;28;20716;-72
2022/03/17 02:37:43;;;;;;;6.30;5.70;;;;;;;;;;5075369;28;20193;-72
2022/03/17 02:40:12;;;;;;;8.80;6.88;;;;;;;;;;5067550;28;20195;-71
2022/03/17 02:42:40;;;;;;;11.73;8.95;;;;;;;;;;5070148;28;20218;-73
2022/03/17 02:45:08;;;;;;;10.52;8.48;;;;;;;;;;5069027;28;20393;-73
2022/03/17 02:47:36;;;;;;;7.72;6.90;;;;;;;;;;5068057;28;20214;-73
2022/03/17 02:50:03;;;;;;;9.40;8.50;;;;;;;;;;5069109;28;20591;-73
2022/03/17 02:52:30;;;;;;;11.77;9.35;;;;;;;;;;5069415;28;20190;-73
2022/03/17 02:54:57;;;;;;;10.63;9.07;;;;;;;;;;5067548;28;20205;-73
2022/03/17 02:57:26;;;;;;;8.15;7.13;;;;;;;;;;5071249;28;20197;-73
2022/03/17 02:59:54;;;;;;;9.55;8.55;;;;;;;;;;5072959;28;20201;-74
2022/03/17 03:02:21;;;;;;;11.10;8.75;;;;;;;;;;5072695;28;20218;-73
2022/03/17 03:04:48;;;;;;;10.45;9.25;;;;;;;;;;5072687;28;20198;-73
2022/03/17 03:07:15;;;;;;;10.43;9.38;;;;;;;;;;5071766;28;20186;-72
2022/03/17 03:09:43;;;;;;;11.45;8.80;;;;;;;;;;5066469;28;20476;-72
2022/03/17 03:12:10;;;;;;;7.97;6.88;;;;;;;;;;5073694;28;20205;-73
2022/03/17 03:14:38;;;;;;;5.68;5.10;;;;;;;;;;5064022;28;20195;-72
2022/03/17 03:17:06;;;;;;;8.63;6.15;;;;;;;;;;5071227;28;20247;-71
2022/03/17 03:19:33;;;;;;;7.15;6.45;;;;;;;;;;5073180;28;20190;-72
2022/03/17 03:22:01;;;;;;;7.20;6.50;;;;;;;;;;5072749;28;20214;-71
2022/03/17 03:24:28;;;;;;;8.45;7.65;;;;;;;;;;5072225;28;20224;-72
2022/03/17 03:26:55;;;;;;;7.30;5.13;;;;;;;;;;5071967;28;20239;-72
2022/03/17 03:29:22;;;;;;;6.55;5.85;;;;;;;;;;5067451;28;20198;-72
2022/03/17 03:31:51;;;;;;;7.22;6.50;;;;;;;;;;5068755;28;20542;-72
2022/03/17 03:34:19;;;;;;;7.00;6.30;;;;;;;;;;5081697;28;20198;-72
2022/03/17 03:39:30;;;;;;;6.63;5.93;;;;;;;;;;5068839;28;20205;-73
2022/03/17 03:41:58;;;;;;;7.25;6.55;;;;;;;;;;5072168;28;20225;-73
2022/03/17 03:44:25;;;;;;;5.30;4.80;;;;;;;;;;5069542;28;20538;-73
2022/03/17 03:46:53;;;;;;;7.78;7.00;;;;;;;;;;5070501;28;20197;-73
2022/03/17 03:49:21;;;;;;;6.78;6.05;;;;;;;;;;5075176;28;20190;-73
2022/03/17 03:51:48;;;;;;;4.90;4.50;;;;;;;;;;5070694;28;20205;-73
2022/03/17 03:54:16;;;;;;;7.85;7.05;;;;;;;;;;5058454;28;20201;-73
2022/03/17 03:56:44;;;;;;;8.13;7.32;;;;;;;;;;5072971;28;20194;-74
2022/03/17 03:59:14;;;;;;;6.72;6.05;;;;;;;;;;5068940;28;20237;-73
2022/03/17 04:01:41;;;;;;;5.90;5.30;;;;;;;;;;5072057;28;20290;-74
2022/03/17 04:04:11;;;;;;;5.68;5.10;;;;;;;;;;5072769;28;20194;-73
2022/03/17 04:06:41;;;;;;;6.80;6.20;;;;;;;;;;5070487;28;20193;-72
2022/03/17 04:09:08;;;;;;;7.35;6.60;;;;;;;;;;5064062;28;20194;-71
2022/03/17 04:11:35;;;;;;;10.05;8.70;;;;;;;;;;5072445;28;20472;-72
2022/03/17 04:14:02;;;;;;;7.20;6.50;;;;;;;;;;5067647;28;20195;-71
2022/03/17 04:16:29;;;;;;;9.40;6.28;;;;;;;;;;5069264;28;20198;-71
2022/03/17 04:18:56;;;;;;;8.60;6.63;;;;;;;;;;5070725;28;20668;-71
2022/03/17 04:21:24;;;;;;;6.15;5.55;;;;;;;;;;5071278;28;20398;-71
2022/03/17 04:23:51;;;;;;;8.65;6.28;;;;;;;;;;5066247;28;20271;-72
2022/03/17 04:26:19;;;;;;;9.35;8.35;;;;;;;;;;5070034;28;20712;-72
2022/03/17 04:28:46;;;;;;;6.85;6.13;;;;;;;;;;5067790;28;20198;-72
2022/03/17 04:31:13;;;;;;;7.90;7.20;;;;;;;;;;5071994;28;20194;-72
2022/03/17 04:33:40;;;;;;;6.40;5.80;;;;;;;;;;5071788;28;20190;-71
2022/03/17 04:36:10;;;;;;;7.97;7.20;;;;;;;;;;5070548;28;20661;-73
2022/03/17 04:38:38;;;;;;;8.23;7.40;;;;;;;;;;5069542;28;20197;-73
2022/03/17 04:41:06;;;;;;;9.00;8.20;;;;;;;;;;5070075;28;20233;-73
2022/03/17 04:43:33;;;;;;;7.85;7.00;;;;;;;;;;5069958;28;20219;-73
2022/03/17 04:46:00;;;;;;;12.23;7.50;;;;;;;;;;5070439;28;20332;-73
2022/03/17 04:48:28;;;;;;;9.55;8.65;;;;;;;;;;5070032;28;20278;-73
2022/03/17 04:50:55;;;;;;;7.72;6.93;;;;;;;;;;5071258;28;20201;-74
2022/03/17 04:53:27;;;;;;;8.35;7.55;;;;;;;;;;5070770;28;20194;-73
2022/03/17 04:55:56;;;;;;;9.45;7.97;;;;;;;;;;5069998;28;20203;-73
2022/03/17 04:58:23;;;;;;;8.02;7.25;;;;;;;;;;5070243;28;20236;-73
2022/03/17 05:00:52;;;;;;;8.85;7.95;;;;;;;;;;5069511;28;20230;-72
2022/03/17 05:03:19;;;;;;;8.90;7.43;;;;;;;;;;5072733;28;20576;-72
2022/03/17 05:05:46;;;;;;;8.35;7.55;;;;;;;;;;5086079;28;20220;-73
2022/03/17 05:08:13;;;;;;;10.18;7.15;;;;;;;;;;5063643;28;20190;-72
2022/03/17 05:10:40;;;;;;;9.02;8.13;;;;;;;;;;5070676;28;20194;-72
2022/03/17 05:13:10;;;;;;;8.65;7.55;;;;;;;;;;5070574;28;20641;-72
2022/03/17 05:15:37;;;;;;;9.57;8.63;;;;;;;;;;5058644;28;20198;-72
2022/03/17 05:18:06;;;;;;;8.93;7.95;;;;;;;;;;5069391;28;20198;-72
2022/03/17 05:20:33;;;;;;;9.20;8.30;;;;;;;;;;5069864;28;20193;-72
2022/03/17 05:23:00;;;;;;;9.20;8.30;;;;;;;;;;5069560;28;20206;-71
2022/03/17 05:25:27;;;;;;;10.75;8.20;;;;;;;;;;5068897;28;20223;-73
2022/03/17 05:27:54;;;;;;;8.70;7.78;;;;;;;;;;5067738;28;20186;-73
2022/03/17 05:30:23;;;;;;;8.98;8.07;;;;;;;;;;5069668;28;20202;-72
2022/03/17 05:32:50;;;;;;;9.50;8.60;;;;;;;;;;5071385;28;20197;-72
2022/03/17 05:35:18;;;;;;;8.55;7.75;;;;;;;;;;5070478;28;20202;-72
2022/03/17 05:37:45;;;;;;;9.57;7.60;;;;;;;;;;5069586;28;20603;-72
2022/03/17 05:40:15;;;;;;;10.85;8.20;;;;;;;;;;5059526;28;20648;-72
2022/03/17 05:42:43;;;;;;;9.00;8.13;;;;;;;;;;5070639;28;20672;-73
2022/03/17 05:45:10;;;;;;;12.77;9.02;;;;;;;;;;5069606;28;20186;-72
2022/03/17 05:47:39;;;;;;;9.10;8.15;;;;;;;;;;5069150;28;20672;-73
2022/03/17 05:50:07;;;;;;;9.52;8.55;;;;;;;;;;5070888;28;20205;-72
2022/03/17 05:52:34;;;;;;;9.90;8.90;;;;;;;;;;5068578;28;20191;-72
2022/03/17 05:55:01;;;;;;;8.75;7.85;;;;;;;;;;5071250;28;20221;-72
2022/03/17 05:57:28;;;;;;;11.45;10.13;;;;;;;;;;5068859;28;20198;-72
2022/03/17 05:59:55;;;;;;;11.30;9.93;;;;;;;;;;5069218;28;20561;-72
2022/03/17 06:02:22;;;;;;;11.27;10.05;;;;;;;;;;5069921;28;20561;-73
2022/03/17 06:04:51;;;;;;;10.45;9.38;;;;;;;;;;5065056;28;20300;-73
2022/03/17 06:07:18;;;;;;;14.27;10.10;;;;;;;;;;5068594;28;20202;-73
2022/03/17 06:09:45;;;;;;;12.63;10.20;;;;;;;;;;5059821;28;20289;-73
2022/03/17 06:12:15;;;;;;;12.15;10.25;;;;;;;;;;5067852;28;20205;-73
2022/03/17 06:14:42;;;;;;;12.10;10.30;;;;;;;;;;5063370;28;20205;-73
2022/03/17 06:17:11;;;;;;;11.15;9.38;;;;;;;;;;5068228;28;20573;-72
2022/03/17 06:19:38;;;;;;;13.95;11.85;;;;;;;;;;5060625;28;20187;-72
2022/03/17 06:22:07;;;;;;;10.80;9.60;;;;;;;;;;5067093;28;20215;-73
2022/03/17 06:24:34;;;;;;;11.85;10.20;;;;;;;;;;5065743;28;20226;-72
2022/03/17 06:27:01;;;;;;;17.38;13.80;;;;;;;;;;5067978;28;20700;-72
2022/03/17 06:29:28;;;;;;;17.70;13.07;;;;;;;;;;5068617;28;20231;-73
2022/03/17 06:31:56;;;;;;;14.85;12.27;;;;;;;;;;5072748;28;20191;-73
2022/03/17 06:34:23;;;;;;;13.93;12.45;;;;;;;;;;5074507;28;20198;-72
2022/03/17 06:36:50;;;;;;;14.40;12.90;;;;;;;;;;5073026;28;20258;-73
2022/03/17 06:39:19;;;;;;;16.25;14.05;;;;;;;;;;5072747;28;20194;-72
2022/03/17 06:41:46;;;;;;;14.35;12.20;;;;;;;;;;5072303;28;20206;-73
2022/03/17 06:44:13;;;;;;;15.30;11.65;;;;;;;;;;5070936;28;20194;-72
2022/03/17 06:46:40;;;;;;;17.50;14.77;;;;;;;;;;5072701;28;20190;-72
2022/03/17 06:49:07;;;;;;;16.30;14.40;;;;;;;;;;5076960;28;20201;-72
2022/03/17 06:51:34;;;;;;;15.98;12.85;;;;;;;;;;5073775;28;20194;-73
2022/03/17 06:54:01;;;;;;;21.95;13.25;;;;;;;;;;5070957;28;20221;-71
2022/03/17 06:56:31;;;;;;;13.80;12.27;;;;;;;;;;5071917;28;20653;-73
2022/03/17 06:58:58;;;;;;;17.60;14.23;;;;;;;;;;5071935;28;20255;-73
2022/03/17 07:01:25;;;;;;;13.60;12.20;;;;;;;;;;5070441;28;20198;-73
2022/03/17 07:03:52;;;;;;;15.68;13.20;;;;;;;;;;5073286;28;20222;-73
2022/03/17 07:06:20;;;;;;;14.13;12.63;;;;;;;;;;5067505;28;20194;-72
2022/03/17 07:08:47;;;;;;;19.98;15.60;;;;;;;;;;5066785;28;20222;-73
2022/03/17 07:11:14;;;;;;;18.80;16.25;;;;;;;;;;5060323;28;20190;-73
2022/03/17 07:13:43;;;;;;;15.23;12.57;;;;;;;;;;5070467;28;20668;-73
2022/03/17 07:16:10;;;;;;;14.48;12.57;;;;;;;;;;5075206;28;20196;-73
2022/03/17 07:18:38;;;;;;;15.50;13.82;;;;;;;;;;5077933;28;20198;-73
2022/03/17 07:21:05;;;;;;;18.17;13.13;;;;;;;;;;5072706;28;20197;-73
2022/03/17 07:23:32;;;;;;;17.30;14.10;;;;;;;;;;5065215;28;20234;-73
2022/03/17 07:25:59;;;;;;;19.92;15.77;;;;;;;;;;5073562;28;20612;-73
2022/03/17 07:28:26;;;;;;;16.88;14.18;;;;;;;;;;5071948;28;20198;-73
2022/03/17 07:30:54;;;;;;;16.27;13.63;;;;;;;;;;5070333;28;20198;-73
2022/03/17 07:33:21;;;;;;;16.83;13.43;;;;;;;;;;5068323;28;20194;-73
2022/03/17 07:35:48;;;;;;;17.13;13.50;;;;;;;;;;5071159;28;20191;-73
2022/03/17 07:38:16;;;;;;;13.13;11.70;;;;;;;;;;5072848;28;20208;-73
2022/03/17 07:40:45;;;;;;;14.65;12.68;;;;;;;;;;5068535;28;20552;-73
2022/03/17 07:43:12;;;;;;;13.73;12.00;;;;;;;;;;5069980;28;20225;-73
2022/03/17 07:45:39;;;;;;;12.38;11.00;;;;;;;;;;5065000;28;20244;-74
2022/03/17 07:48:08;;;;;;;12.20;10.57;;;;;;;;;;5074556;28;20240;-73
2022/03/17 07:50:35;;;;;;;13.30;9.88;;;;;;;;;;5089797;28;20198;-73
2022/03/17 07:53:02;;;;;;;12.73;10.45;;;;;;;;;;5064759;28;20199;-73
2022/03/17 07:55:30;;;;;;;11.70;9.93;;;;;;;;;;5071800;28;20657;-73
2022/03/17 07:57:57;;;;;;;9.70;8.57;;;;;;;;;;5070463;28;20198;-73
2022/03/17 08:00:24;;;;;;;11.43;9.80;;;;;;;;;;5066762;28;20194;-73
2022/03/17 08:02:51;;;;;;;10.88;9.60;;;;;;;;;;5072750;28;20221;-73
2022/03/17 08:05:19;;;;;;;9.95;8.93;;;;;;;;;;5070079;28;20199;-72
2022/03/17 08:07:46;;;;;;;9.50;7.78;;;;;;;;;;5072533;28;20191;-72
2022/03/17 08:10:15;;;;;;;14.82;9.18;;;;;;;;;;5070625;28;20199;-72
2022/03/17 08:12:42;;;;;;;8.88;7.60;;;;;;;;;;5070366;28;20221;-72
2022/03/17 08:15:10;;;;;;;8.63;7.63;;;;;;;;;;5069619;28;20195;-72
2022/03/17 08:17:37;;;;;;;12.38;7.78;;;;;;;;;;5059588;28;20194;-72
2022/03/17 08:20:05;;;;;;;11.02;7.50;;;;;;;;;;5070366;28;20587;-72
2022/03/17 08:22:34;;;;;;;13.82;8.15;;;;;;;;;;5069057;28;20222;-72
2022/03/17 08:25:03;;;;;;;9.65;6.88;;;;;;;;;;5072955;28;20604;-72
2022/03/17 08:27:30;;;;;;;8.57;7.65;;;;;;;;;;5073453;28;20190;-73
2022/03/17 08:29:57;;;;;;;11.02;7.25;;;;;;;;;;5067809;28;20653;-73
2022/03/17 08:32:24;;;;;;;8.30;6.80;;;;;;;;;;5071646;28;20519;-71
2022/03/17 08:34:51;;;;;;;8.80;6.78;;;;;;;;;;5071132;28;20248;-72
2022/03/17 08:37:18;;;;;;;8.73;6.70;;;;;;;;;;5070366;28;20197;-72
2022/03/17 08:39:48;;;;;;;6.55;5.72;;;;;;;;;;5065888;28;20597;-72
2022/03/17 08:42:15;;;;;;;8.23;6.05;;;;;;;;;;5071056;28;20194;-73
2022/03/17 08:44:42;;;;;;;6.78;6.05;;;;;;;;;;5066521;28;20665;-72
2022/03/17 08:49:54;;;;;;;8.23;6.22;;;;;;;;;;5068725;28;20827;-72
2022/03/17 08:52:21;;;;;;;10.13;6.40;;;;;;;;;;5058433;28;20210;-72
2022/03/17 08:54:50;;;;;;;8.00;5.60;;;;;;;;;;5064867;28;20201;-73
2022/03/17 08:57:17;;;;;;;7.40;5.45;;;;;;;;;;5074404;28;20194;-73
2022/03/17 08:59:44;;;;;;;7.03;5.32;;;;;;;;;;5066704;28;20198;-72
2022/03/17 09:02:11;;;;;;;5.95;5.40;;;;;;;;;;5068990;28;20201;-78
2022/03/17 09:04:39;;;;;;;9.85;5.85;;;;;;;;;;5078695;28;20301;-74
2022/03/17 09:07:06;;;;;;;6.63;5.28;;;;;;;;;;5067898;28;20635;-77
2022/03/17 09:09:33;;;;;;;5.55;4.57;;;;;;;;;;5069898;28;20240;-72
2022/03/17 09:12:04;;;;;;;8.52;4.40;;;;;;;;;;5069796;28;20202;-75
2022/03/17 09:14:32;;;;;;;5.28;4.38;;;;;;;;;;5067782;28;20288;-75
2022/03/17 09:16:59;;;;;;;5.90;4.50;;;;;;;;;;5067733;28;20197;-81
2022/03/17 09:19:26;;;;;;;6.88;4.28;;;;;;;;;;5065817;28;20202;-73
2022/03/17 09:21:53;;;;;;;7.57;4.70;;;;;;;;;;5072546;28;20444;-72
2022/03/17 09:24:20;;;;;;;5.30;3.83;;;;;;;;;;5071177;28;20627;-74
2022/03/17 09:26:47;;;;;;;6.25;3.72;;;;;;;;;;5059822;28;20217;-74
2022/03/17 09:29:16;;;;;;;8.48;3.95;;;;;;;;;;5063690;28;20201;-73
2022/03/17 09:31:43;;;;;;;6.43;3.90;;;;;;;;;;5067703;28;20222;-74
2022/03/17 09:34:12;;;;;;;8.70;3.90;;;;;;;;;;5065746;28;20558;-73
2022/03/17 09:36:39;;;;;;;3.85;3.47;;;;;;;;;;5064906;28;20200;-72
2022/03/17 09:41:52;;;;;;;5.85;3.90;;;;;;;;;;5065541;28;20216;-73
2022/03/17 09:44:21;;;;;;;5.88;4.75;;;;;;;;;;5065070;28;20220;-71
2022/03/17 09:46:48;;;;;;;4.30;3.30;;;;;;;;;;5067637;28;20186;-71
2022/03/17 09:49:15;;;;;;;3.42;3.10;;;;;;;;;;5069468;28;20225;-72
2022/03/17 09:51:44;;;;;;;3.70;3.40;;;;;;;;;;5070575;28;20202;-71
2022/03/17 09:54:11;;;;;;;5.72;3.00;;;;;;;;;;5071897;28;20202;-70
2022/03/17 09:56:39;;;;;;;4.82;3.35;;;;;;;;;;5070567;28;20197;-71
2022/03/17 09:59:06;;;;;;;4.50;3.17;;;;;;;;;;5066851;28;20685;-71
2022/03/17 10:01:36;;;;;;;3.63;2.88;;;;;;;;;;5069276;28;20190;-71
2022/03/17 10:04:05;;;;;;;6.57;2.60;;;;;;;;;;5067800;28;20309;-71
2022/03/17 10:06:33;;;;;;;4.65;3.20;;;;;;;;;;5077030;28;20656;-71
2022/03/17 10:09:00;;;;;;;3.85;2.75;;;;;;;;;;5080860;28;20641;-71
2022/03/17 10:11:27;;;;;;;7.43;2.75;;;;;;;;;;5081660;28;20592;-71
2022/03/17 10:13:56;;;;;;;3.47;2.90;;;;;;;;;;5070482;28;20200;-70
2022/03/17 10:16:24;;;;;;;7.43;2.30;;;;;;;;;;5075350;28;20205;-71
2022/03/17 10:19:01;;;;;;;2.67;1.90;;;;;;;;;;5080223;28;20198;-70
2022/03/17 10:21:29;;;;;;;2.60;2.40;;;;;;;;;;5074602;28;20194;-70
2022/03/17 10:23:59;;;;;;;3.05;2.53;;;;;;;;;;5068982;28;20226;-70
2022/03/17 10:26:34;;;;;;;4.22;2.90;;;;;;;;;;5071712;28;20202;-71
2022/03/17 10:29:08;;;;;;;3.40;2.25;;;;;;;;;;5070028;28;20191;-70
2022/03/17 10:31:49;;;;;;;4.30;2.67;;;;;;;;;;5072747;28;20193;-70
2022/03/17 10:34:18;;;;;;;3.40;3.10;;;;;;;;;;5077625;28;20204;-71
2022/03/17 10:36:47;;;;;;;9.88;2.80;;;;;;;;;;5077815;28;20200;-71
2022/03/17 10:39:14;;;;;;;7.35;3.05;;;;;;;;;;5072400;28;20191;-71
2022/03/17 10:41:42;;;;;;;3.88;2.33;;;;;;;;;;5072322;28;20201;-70
2022/03/17 10:44:11;;;;;;;2.70;2.50;;;;;;;;;;5072085;28;20225;-70
2022/03/17 10:46:38;;;;;;;3.13;1.88;;;;;;;;;;5072676;28;20289;-71
2022/03/17 10:49:06;;;;;;;3.05;2.08;;;;;;;;;;5081287;28;20196;-70
2022/03/17 10:51:38;;;;;;;2.38;1.98;;;;;;;;;;5080106;28;20194;-70
2022/03/17 10:54:08;;;;;;;5.28;1.90;;;;;;;;;;5070753;28;20203;-71
2022/03/17 10:56:36;;;;;;;3.00;2.03;;;;;;;;;;5072368;28;20193;-70
2022/03/17 10:59:05;;;;;;;1.38;1.27;;;;;;;;;;5073540;28;20289;-70
2022/03/17 11:01:42;;;;;;;5.95;1.85;;;;;;;;;;5072873;28;20652;-71
2022/03/17 11:04:10;;;;;;;4.30;1.63;;;;;;;;;;5076071;28;20218;-70
2022/03/17 11:06:40;;;;;;;1.88;1.30;;;;;;;;;;5064951;28;20189;-71
2022/03/17 11:09:08;;;;;;;3.38;1.90;;;;;;;;;;5064621;28;20658;-70
2022/03/17 11:11:37;;;;;;;2.03;1.73;;;;;;;;;;5065565;28;20615;-71
2022/03/17 11:14:04;;;;;;;1.88;1.50;;;;;;;;;;5072353;28;20199;-70
2022/03/17 11:16:35;;;;;;;5.75;1.67;;;;;;;;;;5074804;28;20252;-70
2022/03/17 11:19:03;;;;;;;3.67;1.95;;;;;;;;;;5086622;28;20193;-70
2022/03/17 11:21:30;;;;;;;3.97;1.60;;;;;;;;;;5088153;28;20197;-70
2022/03/17 11:24:04;;;;;;;2.63;1.55;;;;;;;;;;5066914;28;20239;-71
2022/03/17 11:26:34;;;;;;;2.58;1.55;;;;;;;;;;5068545;28;20233;-70
2022/03/17 11:29:04;;;;;;;3.95;1.63;;;;;;;;;;5073268;28;20661;-70
2022/03/17 11:31:49;;;;;;;1.80;1.40;;;;;;;;;;5065627;28;20665;-75
2022/03/17 11:34:37;;;;;;;2.55;1.30;;;;;;;;;;5073518;28;20270;-71
2022/03/17 11:37:26;;;;;;;2.13;1.45;;;;;;;;;;5068365;28;20198;-71
2022/03/17 11:39:55;;;;;;;2.60;1.60;;;;;;;;;;5067887;28;20241;-71
2022/03/17 11:42:35;;;;;;;1.95;1.83;;;;;;;;;;5066042;28;20197;-70
2022/03/17 11:45:04;;;;;;;3.13;1.27;;;;;;;;;;5069289;28;20478;-69
2022/03/17 11:47:36;;;;;;;3.50;1.73;;;;;;;;;;5071131;28;20198;-70
2022/03/17 11:50:18;;;;;;;4.28;1.40;;;;;;;;;;5074738;28;20193;-70
2022/03/17 11:52:45;;;;;;;4.28;1.92;;;;;;;;;;5065462;28;20190;-71
2022/03/17 11:55:31;;;;;;;2.40;1.38;;;;;;;;;;5080468;28;20206;-71
2022/03/17 11:58:33;;;;;;;2.45;1.20;;;;;;;;;;5051654;28;20202;-70
2022/03/17 12:01:05;;;;;;;3.92;1.20;;;;;;;;;;5045496;28;20217;-70
2022/03/17 12:03:33;;;;;;;5.10;1.30;;;;;;;;;;5046477;28;20225;-70
2022/03/17 12:06:17;;;;;;;4.10;1.30;;;;;;;;;;5057197;28;21659;-70
2022/03/17 12:08:51;;;;;;;6.72;1.40;;;;;;;;;;5067607;28;20205;-72
2022/03/17 12:11:19;;;;;;;2.95;1.10;;;;;;;;;;5065803;28;20194;-70
2022/03/17 12:14:01;;;;;;;2.95;1.55;;;;;;;;;;5070600;28;20186;-70
2022/03/17 12:16:38;;;;;;;2.00;1.15;;;;;;;;;;5068921;28;20281;-69
2022/03/17 12:19:05;;;;;;;3.78;1.30;;;;;;;;;;5072393;28;20194;-70
2022/03/17 12:21:51;;;;;;;2.80;1.30;;;;;;;;;;5069460;28;20202;-70
2022/03/17 12:24:33;;;;;;;1.52;1.42;;;;;;;;;;5052636;28;20226;-70
2022/03/17 12:27:04;;;;;;;2.95;1.13;;;;;;;;;;5069609;28;20236;-70
2022/03/17 12:29:31;;;;;;;4.20;1.40;;;;;;;;;;5071042;28;20193;-70
2022/03/17 12:32:04;;;;;;;2.75;1.20;;;;;;;;;;5069720;28;20831;-70
2022/03/17 12:34:33;;;;;;;3.75;1.58;;;;;;;;;;5071658;28;20190;-71
2022/03/17 12:37:01;;;;;;;6.90;1.50;;;;;;;;;;5069243;28;20197;-71
2022/03/17 12:39:29;;;;;;;3.28;1.42;;;;;;;;;;5060316;28;20225;-71
2022/03/17 12:41:56;;;;;;;6.88;3.25;;;;;;;;;;5067877;28;20213;-72
2022/03/17 12:44:23;;;;;;;3.20;1.10;;;;;;;;;;5064144;28;20220;-71
2022/03/17 12:46:50;;;;;;;2.20;1.30;;;;;;;;;;5066887;28;20211;-71
2022/03/17 12:49:19;;;;;;;4.95;1.13;;;;;;;;;;5069673;28;20202;-70
2022/03/17 12:51:46;;;;;;;1.52;1.10;;;;;;;;;;5064174;28;20205;-71
2022/03/17 12:54:14;;;;;;;2.53;1.38;;;;;;;;;;5063113;28;20580;-72
2022/03/17 12:56:48;;;;;;;8.23;1.20;;;;;;;;;;5062390;28;20528;-72
2022/03/17 12:59:15;;;;;;;1.65;1.05;;;;;;;;;;5062701;28;20197;-71
2022/03/17 13:01:42;;;;;;;4.10;1.30;;;;;;;;;;5065910;28;20204;-71
2022/03/17 13:04:09;;;;;;;3.67;1.13;;;;;;;;;;5060603;28;20222;-71
2022/03/17 13:06:56;;;;;;;2.33;1.50;;;;;;;;;;5078586;28;20204;-71
2022/03/17 13:09:30;;;;;;;2.47;1.27;;;;;;;;;;5059538;28;20206;-72
2022/03/17 13:14:47;;;;;;;10.98;1.80;;;;;;;;;;5066329;28;20205;-72
2022/03/17 13:17:14;;;;;;;3.72;1.20;;;;;;;;;;5067107;28;20285;-72
2022/03/17 13:19:44;;;;;;;4.53;1.33;;;;;;;;;;5069115;28;20198;-72
2022/03/17 13:22:13;;;;;;;5.25;1.52;;;;;;;;;;5059286;28;20682;-73
2022/03/17 13:24:40;;;;;;;3.03;1.25;;;;;;;;;;5080481;28;20233;-71
2022/03/17 13:27:07;;;;;;;6.45;1.17;;;;;;;;;;5064657;28;20683;-71
2022/03/17 13:29:35;;;;;;;1.48;1.20;;;;;;;;;;5065788;28;20194;-71
2022/03/17 13:32:03;;;;;;;2.75;1.27;;;;;;;;;;5062576;28;20225;-72
2022/03/17 13:34:31;;;;;;;2.40;1.10;;;;;;;;;;5065645;28;20194;-73
2022/03/17 13:36:59;;;;;;;1.80;1.00;;;;;;;;;;5065712;28;20194;-72
2022/03/17 13:39:32;;;;;;;3.95;1.20;;;;;;;;;;5062053;28;20198;-72
2022/03/17 13:42:02;;;;;;;2.35;1.30;;;;;;;;;;5062597;28;20704;-72
2022/03/17 13:44:48;;;;;;;5.68;1.50;;;;;;;;;;5065141;28;20570;-72
2022/03/17 13:47:21;;;;;;;3.40;1.20;;;;;;;;;;5065430;28;20281;-71
2022/03/17 13:50:07;;;;;;;7.90;2.58;;;;;;;;;;5066494;28;20209;-71
2022/03/17 13:52:34;;;;;;;3.30;1.30;;;;;;;;;;5065048;28;20285;-72
2022/03/17 13:55:03;;;;;;;2.13;1.48;;;;;;;;;;5063651;28;20211;-72
2022/03/17 13:57:30;;;;;;;2.50;1.30;;;;;;;;;;5066304;28;20190;-70
2022/03/17 13:59:57;;;;;;;2.08;1.10;;;;;;;;;;5066618;28;20201;-71
2022/03/17 14:02:24;;;;;;;2.30;1.15;;;;;;;;;;5071518;28;20200;-71
2022/03/17 14:04:54;;;;;;;1.80;1.27;;;;;;;;;;5069184;28;20295;-72
2022/03/17 14:07:21;;;;;;;2.92;1.45;;;;;;;;;;5066697;28;20251;-72
2022/03/17 14:09:48;;;;;;;5.72;1.15;;;;;;;;;;5068468;28;20194;-72
2022/03/17 14:12:18;;;;;;;1.95;1.30;;;;;;;;;;5073993;28;20186;-72
2022/03/17 14:14:46;;;;;;;4.50;1.48;;;;;;;;;;5066004;28;20204;-73
2022/03/17 14:17:13;;;;;;;8.73;1.40;;;;;;;;;;5068357;28;20669;-72
2022/03/17 14:19:40;;;;;;;1.77;1.35;;;;;;;;;;5069617;28;20204;-73
2022/03/17 14:24:52;;;;;;;1.58;0.90;;;;;;;;;;5060495;28;20232;-73
2022/03/17 14:27:21;;;;;;;2.50;1.30;;;;;;;;;;5066245;28;20199;-73
2022/03/17 14:29:48;;;;;;;5.35;1.48;;;;;;;;;;5060527;28;20565;-72
2022/03/17 14:32:15;;;;;;;5.20;1.52;;;;;;;;;;5070180;28;20664;-73
2022/03/17 14:34:42;;;;;;;3.70;2.50;;;;;;;;;;5070477;28;20247;-73
2022/03/17 14:37:11;;;;;;;3.80;1.15;;;;;;;;;;5068181;28;20285;-73
2022/03/17 14:39:43;;;;;;;3.55;1.48;;;;;;;;;;5063401;28;20272;-74
2022/03/17 14:42:12;;;;;;;2.30;1.00;;;;;;;;;;5062803;28;20183;-73
2022/03/17 14:44:41;;;;;;;1.73;1.20;;;;;;;;;;5071563;28;20229;-73
2022/03/17 14:47:08;;;;;;;1.95;1.27;;;;;;;;;;5063511;28;20591;-73
2022/03/17 14:49:35;;;;;;;2.42;1.30;;;;;;;;;;5071712;28;20202;-73
2022/03/17 14:52:02;;;;;;;3.35;1.17;;;;;;;;;;5069879;28;20206;-73
2022/03/17 14:54:29;;;;;;;2.63;1.20;;;;;;;;;;5065690;28;20229;-74
2022/03/17 14:56:56;;;;;;;2.00;1.10;;;;;;;;;;5071445;28;20683;-74
2022/03/17 14:59:23;;;;;;;4.45;1.73;;;;;;;;;;5073147;28;20190;-73
2022/03/17 15:01:51;;;;;;;5.65;1.25;;;;;;;;;;5073178;28;20202;-73
2022/03/17 15:04:18;;;;;;;4.38;1.25;;;;;;;;;;5073783;28;20653;-73
2022/03/17 15:06:46;;;;;;;1.58;0.90;;;;;;;;;;5069127;28;20194;-74